Time;durP1;ratioP1;P1;durP2;ratioP2;P2;SDS_P1;SDS_P2;PMS_P1;PMS_P2;Temp;Humidity;BMP_temperature;BMP_pressure;BME280_temperature;BME280_humidity;BME280_pressure;Samples;Min_cycle;Max_cycle;Signal;HPM_P1;HPM_P2
2022/12/24 00:00:29;;;;;;;;;;;;;;;14.90;56.37;99718.47;4937658;28;6848;-72
2022/12/24 00:02:55;;;;;;;;;;;;;;;14.83;57.02;99726.09;4973296;28;9925;-72
2022/12/24 00:05:20;;;;;;;;;;;;;;;14.73;56.48;99724.16;4937180;28;6856;-72
2022/12/24 00:07:46;;;;;;;;;;;;;;;14.62;56.60;99712.72;4942000;28;7809;-72
2022/12/24 00:10:12;;;;;;;;;;;;;;;14.50;57.47;99719.38;4937254;28;6852;-72
2022/12/24 00:12:38;;;;;;;;;;;;;;;14.40;57.50;99715.72;4970265;28;6776;-72
2022/12/24 00:15:06;;;;;;;;;;;;;;;14.29;58.08;99717.22;4955328;28;6908;-72
2022/12/24 00:17:31;;;;;;;;;;;;;;;14.22;57.99;99710.16;4942788;28;6800;-72
2022/12/24 00:19:57;;;;;;;;;;;;;;;14.21;58.96;99711.91;4936581;28;6777;-72
2022/12/24 00:22:23;;;;;;;;;;;;;;;14.20;58.15;99717.00;4940896;28;6776;-72
2022/12/24 00:24:48;;;;;;;;;;;;;;;14.21;58.51;99714.47;4933843;28;7412;-72
2022/12/24 00:27:14;;;;;;;;;;;;;;;14.24;58.97;99714.53;4972391;28;6808;-72
2022/12/24 00:29:39;;;;;;;;;;;;;;;14.22;58.66;99711.06;4972965;28;6961;-72
2022/12/24 00:32:08;;;;;;;;;;;;;;;14.25;58.42;99716.25;4939168;28;7047;-72
2022/12/24 00:34:38;;;;;;;;;;;;;;;14.25;59.23;99721.41;4966028;28;6812;-72
2022/12/24 00:37:06;;;;;;;;;;;;;;;14.26;59.71;99730.88;4969418;28;7090;-72
2022/12/24 00:39:32;;;;;;;;;;;;;;;14.28;59.02;99725.78;4935868;28;6828;-72
2022/12/24 00:41:58;;;;;;;;;;;;;;;14.29;59.57;99723.25;4968268;28;6779;-72
2022/12/24 00:44:24;;;;;;;;;;;;;;;14.29;59.19;99723.25;4968817;28;6782;-72
2022/12/24 00:46:49;;;;;;;;;;;;;;;14.30;59.20;99734.41;4941803;28;6780;-72
2022/12/24 00:49:15;;;;;;;;;;;;;;;14.27;59.02;99729.19;4970098;28;7234;-72
2022/12/24 00:51:41;;;;;;;;;;;;;;;14.27;58.93;99744.66;4974685;28;7181;-72
2022/12/24 00:54:06;;;;;;;;;;;;;;;14.23;59.68;99746.28;4970846;28;7158;-72
2022/12/24 00:56:33;;;;;;;;;;;;;;;14.23;59.58;99746.28;4974341;28;6784;-72
2022/12/24 00:58:59;;;;;;;;;;;;;;;14.27;58.93;99745.50;4970916;28;6824;-72
2022/12/24 01:01:26;;;;;;;;;;;;;;;14.28;59.53;99752.41;4936596;28;6797;-72
2022/12/24 01:05:08;;;;;;;;;;;;;;;14.30;58.49;99755.91;4941181;28;6784;-73
2022/12/24 01:06:37;;;;;;;;;;;;;;;14.30;58.92;99755.03;4940035;28;6840;-72
2022/12/24 01:09:03;;;;;;;;;;;;;;;14.30;58.51;99762.75;4940817;28;6772;-73
2022/12/24 01:11:29;;;;;;;;;;;;;;;14.30;58.86;99770.50;4972751;28;7036;-72
2022/12/24 01:13:55;;;;;;;;;;;;;;;14.28;59.21;99767.88;4956135;28;6959;-73
2022/12/24 01:16:21;;;;;;;;;;;;;;;14.28;58.56;99774.75;4967555;28;6907;-71
2022/12/24 01:18:47;;;;;;;;;;;;;;;14.29;59.30;99779.06;4963368;28;6820;-72
2022/12/24 01:21:14;;;;;;;;;;;;;;;14.30;58.15;99791.13;4929930;28;6784;-73
2022/12/24 01:23:40;;;;;;;;;;;;;;;14.27;58.97;99797.06;4967206;28;6824;-72
2022/12/24 01:26:06;;;;;;;;;;;;;;;14.27;58.63;99793.63;4935928;28;7229;-72
2022/12/24 01:28:32;;;;;;;;;;;;;;;14.27;59.13;99797.06;4971161;28;6844;-72
2022/12/24 01:30:58;;;;;;;;;;;;;;;14.25;58.89;99798.75;4966834;28;6869;-73
2022/12/24 01:33:28;;;;;;;;;;;;;;;14.26;58.54;99800.47;4950306;28;6827;-72
2022/12/24 01:35:54;;;;;;;;;;;;;;;14.28;58.98;99798.81;4956234;28;7187;-72
2022/12/24 01:38:19;;;;;;;;;;;;;;;14.29;58.44;99792.84;4973383;28;6945;-72
2022/12/24 01:43:32;;;;;;;;;;;;;;;14.30;59.07;99798.84;4936054;28;6832;-73
2022/12/24 01:46:25;;;;;;;;;;;;;;;14.29;58.57;99795.41;4952692;28;6800;-71
2022/12/24 01:49:03;;;;;;;;;;;;;;;14.28;58.18;99803.09;4960510;28;6967;-73
2022/12/24 01:52:01;;;;;;;;;;;;;;;14.26;58.62;99820.25;4954187;28;6804;-72
2022/12/24 01:54:43;;;;;;;;;;;;;;;14.24;59.30;99799.59;4970722;28;7117;-72
2022/12/24 01:57:19;;;;;;;;;;;;;;;14.29;58.48;99800.56;4963208;28;6833;-72
2022/12/24 01:59:50;;;;;;;;;;;;;;;14.35;58.79;99802.41;4974068;28;6864;-73
2022/12/24 02:02:17;;;;;;;;;;;;;;;14.38;59.32;99797.31;4974663;28;7349;-72
2022/12/24 02:05:15;;;;;;;;;;;;;;;14.43;58.48;99802.59;4974055;28;6792;-72
2022/12/24 02:07:42;;;;;;;;;;;;;;;14.48;58.46;99815.56;4965496;28;6843;-71
2022/12/24 02:10:11;;;;;;;;;;;;;;;14.52;59.00;99815.69;4970599;28;10246;-72
2022/12/24 02:12:38;;;;;;;;;;;;;;;14.58;58.18;99823.56;4975546;28;7221;-73
2022/12/24 02:15:09;;;;;;;;;;;;;;;14.61;58.88;99820.16;4976038;28;6812;-72
2022/12/24 02:18:09;;;;;;;;;;;;;;;14.65;59.14;99826.25;4942815;28;6879;-73
2022/12/24 02:21:15;;;;;;;;;;;;;;;14.69;58.50;99825.50;4940138;28;6995;-72
2022/12/24 02:24:00;;;;;;;;;;;;;;;14.72;59.09;99831.63;4946552;28;6800;-73
2022/12/24 02:26:59;;;;;;;;;;;;;;;14.74;58.65;99835.97;4972352;28;7031;-73
2022/12/24 02:30:05;;;;;;;;;;;;;;;14.76;58.90;99832.56;4972236;28;7015;-72
2022/12/24 02:33:01;;;;;;;;;;;;;;;14.74;58.96;99841.97;4944301;28;6904;-73
2022/12/24 02:36:10;;;;;;;;;;;;;;;14.74;58.57;99852.28;4941038;28;6884;-72
2022/12/24 02:39:10;;;;;;;;;;;;;;;14.77;58.39;99856.66;4941698;28;6820;-72
2022/12/24 02:44:41;;;;;;;;;;;;;;;14.71;58.44;99853.06;4964647;28;6947;-72
2022/12/24 02:47:09;;;;;;;;;;;;;;;14.63;58.26;99867.50;4938155;28;7905;-71
2022/12/24 02:49:36;;;;;;;;;;;;;;;14.52;58.42;99868.94;4940614;28;7189;-72
2022/12/24 02:52:02;;;;;;;;;;;;;;;14.44;58.86;99871.34;4975796;28;6956;-72
2022/12/24 02:54:29;;;;;;;;;;;;;;;14.41;58.81;99876.44;4977335;28;6796;-72
2022/12/24 02:57:26;;;;;;;;;;;;;;;14.34;59.33;99874.56;4943706;28;6792;-71
2022/12/24 03:00:09;;;;;;;;;;;;;;;14.26;60.01;99875.22;4967952;28;7031;-72
2022/12/24 03:03:13;;;;;;;;;;;;;;;14.22;59.33;99876.00;4937928;28;11333;-72
2022/12/24 03:06:08;;;;;;;;;;;;;;;14.16;60.53;99875.84;4969704;28;6828;-73
2022/12/24 03:08:55;;;;;;;;;;;;;;;14.14;60.24;99877.50;4938425;28;6864;-71
2022/12/24 03:11:21;;;;;;;;;;;;;;;14.11;59.74;99872.28;4961387;28;9216;-73
2022/12/24 03:13:49;;;;;;;;;;;;;;;14.06;59.79;99872.19;4956213;28;6768;-72
2022/12/24 03:16:25;;;;;;;;;;;;;;;14.03;59.73;99878.13;4974110;28;7229;-72
2022/12/24 03:18:54;;;;;;;;;;;;;;;14.01;60.33;99873.75;4972675;28;7144;-72
2022/12/24 03:21:31;;;;;;;;;;;;;;;13.99;60.66;99876.28;4938403;28;7019;-72
2022/12/24 03:23:58;;;;;;;;;;;;;;;13.97;59.72;99877.09;4973769;28;6992;-72
2022/12/24 03:26:27;;;;;;;;;;;;;;;13.94;60.66;99880.44;4942323;28;6800;-73
2022/12/24 03:28:53;;;;;;;;;;;;;;;13.91;59.91;99892.38;4965656;28;6788;-73
2022/12/24 03:31:19;;;;;;;;;;;;;;;13.87;59.94;99892.31;4960765;28;6784;-73
2022/12/24 03:33:47;;;;;;;;;;;;;;;13.89;60.46;99902.63;4924404;28;7000;-71
2022/12/24 03:36:13;;;;;;;;;;;;;;;13.87;60.70;99894.00;4953987;28;8587;-70
2022/12/24 03:38:39;;;;;;;;;;;;;;;13.86;60.19;99903.44;4946191;28;7289;-70
2022/12/24 03:41:05;;;;;;;;;;;;;;;13.87;60.11;99899.16;4950579;28;6776;-70
2022/12/24 03:43:31;;;;;;;;;;;;;;;13.81;60.33;99897.28;4952971;28;6856;-70
2022/12/24 03:45:57;;;;;;;;;;;;;;;13.78;60.67;99893.75;4922839;28;6848;-70
2022/12/24 03:48:23;;;;;;;;;;;;;;;13.71;60.64;99890.16;4951053;28;6792;-71
2022/12/24 03:50:49;;;;;;;;;;;;;;;13.67;61.20;99907.22;4951076;28;7109;-70
2022/12/24 03:53:20;;;;;;;;;;;;;;;13.66;60.36;99899.44;4920199;29;7146;-72
2022/12/24 03:55:46;;;;;;;;;;;;;;;13.62;61.57;99903.66;4920736;29;6788;-71
2022/12/24 03:58:12;;;;;;;;;;;;;;;13.59;60.82;99906.13;4913949;28;6776;-71
2022/12/24 04:00:37;;;;;;;;;;;;;;;13.59;61.33;99903.53;4894963;28;7076;-71
2022/12/24 04:03:03;;;;;;;;;;;;;;;13.55;61.26;99912.88;4934105;28;6840;-71
2022/12/24 04:05:28;;;;;;;;;;;;;;;13.54;61.35;99915.44;4940946;28;8097;-71
2022/12/24 04:07:54;;;;;;;;;;;;;;;13.53;61.45;99911.13;4934269;28;7953;-71
2022/12/24 04:10:20;;;;;;;;;;;;;;;13.50;61.82;99914.47;4939761;28;6815;-71
2022/12/24 04:12:45;;;;;;;;;;;;;;;13.51;61.61;99915.34;4966639;28;6768;-71
2022/12/24 04:15:11;;;;;;;;;;;;;;;13.52;61.10;99909.34;4936294;28;7029;-72
2022/12/24 04:17:37;;;;;;;;;;;;;;;13.53;61.60;99924.00;4936052;28;6760;-72
2022/12/24 04:20:03;;;;;;;;;;;;;;;13.50;60.99;99913.59;4938345;28;6859;-71
2022/12/24 04:22:29;;;;;;;;;;;;;;;13.52;60.98;99917.06;4969030;28;6788;-71
2022/12/24 04:24:54;;;;;;;;;;;;;;;13.50;61.13;99919.63;4940359;28;6769;-71
2022/12/24 04:27:20;;;;;;;;;;;;;;;13.47;61.13;99919.50;4943705;28;6768;-71
2022/12/24 04:29:46;;;;;;;;;;;;;;;13.46;61.74;99930.66;4941048;28;6768;-71
2022/12/24 04:32:11;;;;;;;;;;;;;;;13.45;61.38;99937.50;4964676;28;6764;-71
2022/12/24 04:34:37;;;;;;;;;;;;;;;13.47;61.90;99937.53;4943729;28;6764;-71
2022/12/24 04:37:03;;;;;;;;;;;;;;;13.50;61.78;99935.06;4951974;28;7974;-71
2022/12/24 04:39:28;;;;;;;;;;;;;;;13.56;61.45;99942.09;4972884;28;7902;-71
2022/12/24 04:41:54;;;;;;;;;;;;;;;13.62;61.60;99944.84;4937440;28;6840;-71
2022/12/24 04:44:20;;;;;;;;;;;;;;;13.67;61.28;99945.84;4920343;28;6952;-71
2022/12/24 04:46:45;;;;;;;;;;;;;;;13.70;61.85;99948.50;4969216;28;6775;-71
2022/12/24 04:49:11;;;;;;;;;;;;;;;13.77;61.89;99938.38;4935984;28;6760;-72
2022/12/24 04:51:37;;;;;;;;;;;;;;;13.78;61.47;99940.09;4946883;28;6962;-71
2022/12/24 04:54:02;;;;;;;;;;;;;;;13.75;62.04;99939.19;4963339;28;6788;-71
2022/12/24 04:56:31;;;;;;;;;;;;;;;13.73;61.70;99948.59;4961212;28;6825;-71
2022/12/24 04:58:59;;;;;;;;;;;;;;;13.73;61.49;99953.75;4967720;28;7240;-72
2022/12/24 05:01:29;;;;;;;;;;;;;;;13.73;62.55;99952.88;4961010;28;7208;-72
2022/12/24 05:03:55;;;;;;;;;;;;;;;13.73;62.49;99948.59;4935873;28;6872;-71
2022/12/24 05:06:26;;;;;;;;;;;;;;;13.75;62.46;99952.09;4963988;28;6939;-71
2022/12/24 05:08:56;;;;;;;;;;;;;;;13.82;62.05;99957.41;4929662;28;6816;-72
2022/12/24 05:11:22;;;;;;;;;;;;;;;13.87;62.76;99955.81;4963035;28;6940;-72
2022/12/24 05:13:48;;;;;;;;;;;;;;;13.94;62.72;99959.44;4966919;28;6784;-71
2022/12/24 05:16:17;;;;;;;;;;;;;;;14.02;62.09;99960.50;4964375;28;7030;-71
2022/12/24 05:18:42;;;;;;;;;;;;;;;14.05;62.62;99945.16;4933261;28;7044;-71
2022/12/24 05:21:15;;;;;;;;;;;;;;;14.03;62.39;99951.94;4966957;28;7756;-71
2022/12/24 05:26:34;;;;;;;;;;;;;;;14.01;61.32;99957.09;4955982;28;6804;-71
2022/12/24 05:29:02;;;;;;;;;;;;;;;13.97;61.84;99968.13;4930082;28;6816;-71
2022/12/24 05:31:32;;;;;;;;;;;;;;;13.94;61.19;99970.63;4922933;28;6784;-71
2022/12/24 05:33:58;;;;;;;;;;;;;;;13.93;61.61;99976.59;4952223;28;7334;-72
2022/12/24 05:36:24;;;;;;;;;;;;;;;13.94;62.10;99978.34;4967382;28;6789;-72
2022/12/24 05:38:50;;;;;;;;;;;;;;;13.97;61.93;99978.44;4937135;28;6781;-72
2022/12/24 05:41:17;;;;;;;;;;;;;;;14.00;62.03;99982.78;4945987;28;6792;-72
2022/12/24 05:43:45;;;;;;;;;;;;;;;14.02;62.36;99987.16;4969011;28;6820;-71
2022/12/24 05:46:14;;;;;;;;;;;;;;;14.05;61.55;99986.38;4968288;28;7226;-72
2022/12/24 05:48:40;;;;;;;;;;;;;;;14.09;61.70;99987.31;4968864;28;7400;-72
2022/12/24 05:51:09;;;;;;;;;;;;;;;14.08;62.46;99993.31;4969227;28;6953;-72
2022/12/24 05:53:35;;;;;;;;;;;;;;;14.09;61.42;99992.47;4966966;28;6819;-72
2022/12/24 05:56:09;;;;;;;;;;;;;;;14.10;62.34;99994.22;4936397;28;6796;-72
2022/12/24 05:58:35;;;;;;;;;;;;;;;14.09;60.97;99997.63;4967101;28;6859;-72
2022/12/24 06:01:03;;;;;;;;;;;;;;;14.09;60.97;100002.78;4933594;28;6796;-72
2022/12/24 06:03:30;;;;;;;;;;;;;;;14.07;61.54;100001.88;4969861;28;6792;-72
2022/12/24 06:06:12;;;;;;;;;;;;;;;14.07;61.75;100005.31;4933496;28;7405;-72
2022/12/24 06:08:40;;;;;;;;;;;;;;;14.06;61.12;100005.28;4949534;28;6835;-72
2022/12/24 06:11:10;;;;;;;;;;;;;;;14.06;61.92;100011.31;4947132;28;7302;-72
2022/12/24 06:13:36;;;;;;;;;;;;;;;14.06;61.72;100008.75;4956298;28;7191;-72
2022/12/24 06:16:05;;;;;;;;;;;;;;;14.08;61.70;100009.66;4961396;28;7032;-72
2022/12/24 06:18:33;;;;;;;;;;;;;;;14.09;61.70;100023.38;4967756;28;6892;-72
2022/12/24 06:21:00;;;;;;;;;;;;;;;14.10;61.83;100025.13;4966055;28;6796;-72
2022/12/24 06:23:30;;;;;;;;;;;;;;;14.08;61.38;100025.13;4957948;28;7222;-72
2022/12/24 06:25:59;;;;;;;;;;;;;;;14.06;61.34;100029.34;4965812;28;6872;-72
2022/12/24 06:28:29;;;;;;;;;;;;;;;14.07;60.97;100023.38;4959067;28;7913;-72
2022/12/24 06:30:55;;;;;;;;;;;;;;;14.13;61.28;100025.25;4964825;28;6951;-72
2022/12/24 06:33:21;;;;;;;;;;;;;;;14.16;61.05;100038.19;4965880;28;6994;-72
2022/12/24 06:35:47;;;;;;;;;;;;;;;14.18;61.30;100033.94;4937136;28;6784;-72
2022/12/24 06:38:14;;;;;;;;;;;;;;;14.17;61.01;100039.94;4939513;28;6952;-72
2022/12/24 06:40:43;;;;;;;;;;;;;;;14.19;60.99;100042.56;4961315;28;7008;-72
2022/12/24 06:43:11;;;;;;;;;;;;;;;14.18;60.63;100044.25;4963090;28;8805;-72
2022/12/24 06:45:37;;;;;;;;;;;;;;;14.16;61.56;100040.78;4936519;28;7058;-72
2022/12/24 06:48:03;;;;;;;;;;;;;;;14.18;61.31;100033.94;4960689;28;7000;-72
2022/12/24 06:50:29;;;;;;;;;;;;;;;14.19;61.13;100051.16;4938999;28;6987;-72
2022/12/24 06:52:55;;;;;;;;;;;;;;;14.24;60.83;100048.72;4973533;28;7316;-72
2022/12/24 06:55:20;;;;;;;;;;;;;;;14.27;61.03;100051.38;4939686;28;7220;-72
2022/12/24 06:57:46;;;;;;;;;;;;;;;14.30;61.06;100051.47;4958249;28;6966;-72
2022/12/24 07:00:12;;;;;;;;;;;;;;;14.29;60.45;100052.31;4962288;28;7125;-72
2022/12/24 07:02:41;;;;;;;;;;;;;;;14.29;60.27;100045.47;4934203;28;6780;-72
2022/12/24 07:05:09;;;;;;;;;;;;;;;14.27;60.48;100059.97;4970239;28;7053;-72
2022/12/24 07:07:43;;;;;;;;;;;;;;;14.26;60.10;100052.22;4956442;28;6917;-72
2022/12/24 07:10:13;;;;;;;;;;;;;;;14.21;60.56;100057.25;4931966;28;6827;-72
2022/12/24 07:12:39;;;;;;;;;;;;;;;14.21;60.98;100057.25;4939214;28;6789;-72
2022/12/24 07:15:06;;;;;;;;;;;;;;;14.23;60.98;100055.59;4944408;28;6926;-72
2022/12/24 07:17:32;;;;;;;;;;;;;;;14.27;60.88;100059.13;4956420;28;7274;-72
2022/12/24 07:19:57;;;;;;;;;;;;;;;14.30;61.37;100065.25;4937731;28;7207;-72
2022/12/24 07:22:23;;;;;;;;;;;;;;;14.34;60.89;100062.72;4971886;28;6978;-72
2022/12/24 07:24:49;;;;;;;;;;;;;;;14.41;60.93;100069.81;4972030;28;6850;-72
2022/12/24 07:27:14;;;;;;;;;;;;;;;14.44;61.14;100073.34;4929002;28;6975;-72
2022/12/24 07:29:40;;;;;;;;;;;;;;;14.46;60.28;100073.38;4933851;28;7071;-73
2022/12/24 07:32:06;;;;;;;;;;;;;;;14.48;60.40;100083.75;4967118;28;7221;-72
2022/12/24 07:34:32;;;;;;;;;;;;;;;14.54;60.28;100081.34;4944058;28;7154;-72
2022/12/24 07:36:57;;;;;;;;;;;;;;;14.56;59.94;100077.94;4933849;28;7359;-72
2022/12/24 07:39:23;;;;;;;;;;;;;;;14.56;60.05;100079.66;4967013;28;8797;-72
2022/12/24 07:41:49;;;;;;;;;;;;;;;14.58;60.15;100089.19;4935794;28;6848;-72
2022/12/24 07:44:16;;;;;;;;;;;;;;;14.61;60.21;100090.09;4936197;28;6784;-72
2022/12/24 07:46:42;;;;;;;;;;;;;;;14.63;60.09;100085.84;4963755;28;6931;-72
2022/12/24 07:49:09;;;;;;;;;;;;;;;14.64;60.13;100105.66;4966021;28;7027;-73
2022/12/24 07:51:35;;;;;;;;;;;;;;;14.66;60.00;100104.88;4931571;28;6800;-72
2022/12/24 07:54:00;;;;;;;;;;;;;;;14.68;59.36;100102.34;4926084;28;6784;-72
2022/12/24 07:56:26;;;;;;;;;;;;;;;14.65;59.73;100116.00;4929382;28;6836;-72
2022/12/24 07:58:52;;;;;;;;;;;;;;;14.56;60.04;100110.59;4924717;28;9262;-72
2022/12/24 08:01:18;;;;;;;;;;;;;;;14.49;59.49;100122.47;4945650;28;6987;-72
2022/12/24 08:03:44;;;;;;;;;;;;;;;14.43;60.29;100122.28;4931971;28;6959;-72
2022/12/24 08:06:10;;;;;;;;;;;;;;;14.38;59.97;100116.13;4931481;28;6792;-72
2022/12/24 08:08:37;;;;;;;;;;;;;;;14.35;60.24;100118.63;4902945;28;8789;-72
2022/12/24 08:11:05;;;;;;;;;;;;;;;14.33;60.60;100112.56;4961010;28;6792;-72
2022/12/24 08:13:31;;;;;;;;;;;;;;;14.34;60.75;100129.75;4967923;28;8720;-72
2022/12/24 08:15:58;;;;;;;;;;;;;;;14.34;60.14;100130.66;4959708;28;6945;-72
2022/12/24 08:18:24;;;;;;;;;;;;;;;14.35;60.89;100121.19;4942629;28;6994;-72
2022/12/24 08:20:51;;;;;;;;;;;;;;;14.41;60.31;100126.53;4927762;28;7278;-73
2022/12/24 08:23:17;;;;;;;;;;;;;;;14.44;60.89;100130.06;4939043;28;6780;-72
2022/12/24 08:25:46;;;;;;;;;;;;;;;14.47;59.85;100137.00;4969176;28;7022;-73
2022/12/24 08:28:14;;;;;;;;;;;;;;;14.50;60.63;100150.00;4958570;28;6993;-72
2022/12/24 08:30:41;;;;;;;;;;;;;;;14.53;60.62;100144.03;4940696;28;6999;-72
2022/12/24 08:33:07;;;;;;;;;;;;;;;14.56;60.76;100152.72;4971855;28;7161;-72
2022/12/24 08:35:33;;;;;;;;;;;;;;;14.60;60.58;100148.53;4931299;28;6856;-72
2022/12/24 08:37:59;;;;;;;;;;;;;;;14.64;59.86;100157.22;4962737;28;8736;-72
2022/12/24 08:40:24;;;;;;;;;;;;;;;14.68;60.59;100146.19;4954508;28;6948;-72
2022/12/24 08:42:50;;;;;;;;;;;;;;;14.76;60.25;100157.59;4962646;28;6780;-72
2022/12/24 08:45:16;;;;;;;;;;;;;;;14.83;59.75;100159.50;4925408;28;6947;-73
2022/12/24 08:47:43;;;;;;;;;;;;;;;14.89;60.38;100155.34;4930538;28;6991;-72
2022/12/24 08:50:09;;;;;;;;;;;;;;;14.92;59.82;100160.59;4944653;28;6990;-73
2022/12/24 08:52:35;;;;;;;;;;;;;;;14.96;59.82;100167.56;4932914;28;7149;-73
2022/12/24 08:55:01;;;;;;;;;;;;;;;14.98;59.84;100168.50;4959423;28;7710;-72
2022/12/24 08:57:27;;;;;;;;;;;;;;;14.99;59.86;100175.41;4921940;28;7904;-72
2022/12/24 08:59:53;;;;;;;;;;;;;;;15.00;59.50;100170.25;4930555;28;6804;-72
2022/12/24 09:02:19;;;;;;;;;;;;;;;15.03;59.69;100179.81;4924950;28;7257;-73
2022/12/24 09:04:45;;;;;;;;;;;;;;;15.05;58.73;100185.00;4922674;28;8577;-73
2022/12/24 09:07:11;;;;;;;;;;;;;;;15.07;59.02;100184.22;4933955;28;6959;-73
2022/12/24 09:09:37;;;;;;;;;;;;;;;15.09;59.34;100185.13;4918469;28;6832;-73
2022/12/24 09:12:05;;;;;;;;;;;;;;;15.11;59.22;100187.75;4919762;28;6800;-73
2022/12/24 09:14:30;;;;;;;;;;;;;;;15.10;58.88;100184.28;4917354;29;8231;-73
2022/12/24 09:16:56;;;;;;;;;;;;;;;15.12;58.78;100198.09;4921992;29;6835;-73
2022/12/24 09:19:22;;;;;;;;;;;;;;;15.13;59.28;100194.69;4953595;28;6776;-74
2022/12/24 09:21:47;;;;;;;;;;;;;;;15.11;58.65;100214.44;4950990;28;6851;-73
2022/12/24 09:24:13;;;;;;;;;;;;;;;15.09;58.73;100212.63;4956119;28;7356;-73
2022/12/24 09:26:40;;;;;;;;;;;;;;;15.06;58.61;100215.16;4953079;28;7995;-74
2022/12/24 09:29:08;;;;;;;;;;;;;;;15.06;59.44;100228.06;4924840;28;6804;-73
2022/12/24 09:31:34;;;;;;;;;;;;;;;15.06;59.01;100223.75;4939303;28;6952;-73
2022/12/24 09:34:00;;;;;;;;;;;;;;;15.06;58.71;100223.75;4915426;28;7150;-73
2022/12/24 09:36:26;;;;;;;;;;;;;;;15.04;58.46;100224.56;4942211;28;6788;-74
2022/12/24 09:38:52;;;;;;;;;;;;;;;14.99;59.16;100217.56;4971181;28;7153;-73
2022/12/24 09:41:59;;;;;;;;;;;;;;;14.94;59.14;100228.59;4942353;28;6792;-73
2022/12/24 09:44:42;;;;;;;;;;;;;;;14.89;59.05;100235.34;4943891;28;6967;-73
2022/12/24 09:47:42;;;;;;;;;;;;;;;14.87;60.07;100248.19;4942506;28;6804;-73
2022/12/24 09:50:35;;;;;;;;;;;;;;;14.85;59.72;100249.88;4941241;28;6820;-73
2022/12/24 09:53:14;;;;;;;;;;;;;;;14.86;59.55;100252.47;4942622;28;6824;-74
2022/12/24 09:55:49;;;;;;;;;;;;;;;14.86;59.70;100260.19;4973396;28;7010;-74
2022/12/24 09:58:38;;;;;;;;;;;;;;;14.88;58.95;100262.84;4945152;28;7026;-73
2022/12/24 10:01:04;;;;;;;;;;;;;;;14.89;59.63;100263.72;4938515;28;7655;-73
2022/12/24 10:03:31;;;;;;;;;;;;;;;14.93;59.12;100262.97;4960808;28;8200;-73
2022/12/24 10:06:14;;;;;;;;;;;;;;;15.00;60.01;100264.91;4952269;28;7006;-73
2022/12/24 10:08:50;;;;;;;;;;;;;;;15.08;59.32;100259.94;4965433;28;7173;-73
2022/12/24 10:11:27;;;;;;;;;;;;;;;15.18;59.73;100258.50;4924967;28;6808;-73
2022/12/24 10:13:58;;;;;;;;;;;;;;;15.26;59.55;100259.56;4956303;28;6980;-72
2022/12/24 10:16:55;;;;;;;;;;;;;;;15.34;59.23;100268.38;4939288;28;6800;-73
2022/12/24 10:20:10;;;;;;;;;;;;;;;15.40;59.40;100271.13;4934637;28;8541;-73
2022/12/24 10:23:23;;;;;;;;;;;;;;;15.48;58.48;100279.06;4954767;28;7337;-73
2022/12/24 10:26:23;;;;;;;;;;;;;;;15.57;58.92;100283.59;4970195;28;6914;-72
2022/12/24 10:28:59;;;;;;;;;;;;;;;15.65;58.81;100282.09;4966217;28;7218;-73
2022/12/24 10:31:30;;;;;;;;;;;;;;;15.73;58.53;100278.81;4963326;28;8273;-73
2022/12/24 10:34:09;;;;;;;;;;;;;;;15.79;58.25;100274.69;4934057;28;6899;-73
2022/12/24 10:36:35;;;;;;;;;;;;;;;15.87;58.38;100277.47;4936639;28;6969;-73
2022/12/24 10:39:01;;;;;;;;;;;;;;;15.91;57.68;100268.09;4941137;28;6954;-74
2022/12/24 10:41:29;;;;;;;;;;;;;;;15.90;58.02;100262.03;4968519;28;8611;-74
2022/12/24 10:43:56;;;;;;;;;;;;;;;15.88;57.81;100263.69;4967274;28;7784;-72
2022/12/24 10:46:35;;;;;;;;;;;;;;;15.87;57.44;100259.38;4937267;28;6796;-73
2022/12/24 10:49:05;;;;;;;;;;;;;;;15.86;57.45;100257.63;4958785;28;7083;-73
2022/12/24 10:51:48;;;;;;;;;;;;;;;15.87;57.59;100256.78;4939423;28;6812;-73
2022/12/24 10:54:21;;;;;;;;;;;;;;;15.88;57.55;100265.38;4937151;28;6808;-73
2022/12/24 10:56:51;;;;;;;;;;;;;;;15.90;57.74;100263.75;4969196;28;7269;-73
2022/12/24 10:59:48;;;;;;;;;;;;;;;15.93;57.71;100261.25;4966782;28;6820;-74
2022/12/24 11:02:37;;;;;;;;;;;;;;;15.96;57.55;100269.97;4940907;28;6820;-73
2022/12/24 11:05:30;;;;;;;;;;;;;;;16.05;57.59;100260.69;4961522;28;7035;-73
2022/12/24 11:08:13;;;;;;;;;;;;;;;16.16;57.62;100264.38;4933664;28;6820;-73
2022/12/24 11:11:12;;;;;;;;;;;;;;;16.20;57.02;100258.44;4958083;28;7270;-73
2022/12/24 11:13:49;;;;;;;;;;;;;;;16.19;56.79;100263.59;4943913;28;8490;-73
2022/12/24 11:16:35;;;;;;;;;;;;;;;16.15;56.69;100270.38;4927638;28;6979;-73
2022/12/24 11:19:05;;;;;;;;;;;;;;;16.14;56.83;100272.94;4927123;28;6816;-73
2022/12/24 11:21:36;;;;;;;;;;;;;;;16.09;56.62;100278.88;4925159;28;6882;-72
2022/12/24 11:24:11;;;;;;;;;;;;;;;16.09;56.82;100278.00;4932668;28;6824;-73
2022/12/24 11:26:38;;;;;;;;;;;;;;;16.08;56.76;100269.38;4926940;28;6796;-72
2022/12/24 11:29:27;;;;;;;;;;;;;;;16.10;56.70;100274.56;4963351;28;6792;-73
2022/12/24 11:32:18;;;;;;;;;;;;;;;16.08;56.82;100281.41;4945159;28;6824;-73
2022/12/24 11:34:44;;;;;;;;;;;;;;;16.08;57.20;100286.59;4933859;28;7063;-73
2022/12/24 11:37:15;;;;;;;;;;;;;;;16.09;56.59;100276.28;4960253;28;7192;-73
2022/12/24 11:39:51;;;;;;;;;;;;;;;16.10;57.07;100271.97;4934299;28;6789;-73
2022/12/24 11:42:43;;;;;;;;;;;;;;;16.14;56.58;100268.66;4962077;28;7454;-73
2022/12/24 11:45:24;;;;;;;;;;;;;;;16.17;56.34;100273.88;4933761;28;6868;-73
2022/12/24 11:47:55;;;;;;;;;;;;;;;16.15;55.96;100274.66;4937466;28;6828;-73
2022/12/24 11:50:49;;;;;;;;;;;;;;;16.10;56.24;100275.44;4964633;28;6820;-73
2022/12/24 11:53:24;;;;;;;;;;;;;;;16.04;56.52;100264.97;4914113;28;6847;-73
2022/12/24 11:56:11;;;;;;;;;;;;;;;16.02;56.32;100264.06;4922054;28;6968;-73
2022/12/24 11:59:30;;;;;;;;;;;;;;;15.99;55.83;100261.41;4912723;28;6824;-72
2022/12/24 12:02:27;;;;;;;;;;;;;;;15.95;56.28;100269.91;4904144;28;8495;-73
2022/12/24 12:05:04;;;;;;;;;;;;;;;15.91;56.35;100276.72;4911052;28;7028;-73
2022/12/24 12:07:38;;;;;;;;;;;;;;;15.93;56.21;100288.00;4901423;29;6800;-73
2022/12/24 12:10:17;;;;;;;;;;;;;;;15.99;56.60;100282.09;4918170;29;6800;-73
2022/12/24 12:13:02;;;;;;;;;;;;;;;16.07;56.37;100280.53;4931601;28;6948;-73
2022/12/24 12:16:19;;;;;;;;;;;;;;;16.13;56.14;100290.19;4931090;28;6820;-73
2022/12/24 12:19:07;;;;;;;;;;;;;;;16.20;56.14;100291.19;4909531;29;6873;-74
2022/12/24 12:21:43;;;;;;;;;;;;;;;16.26;56.52;100290.44;4921420;28;7675;-73
2022/12/24 12:24:28;;;;;;;;;;;;;;;16.34;56.57;100294.09;4899777;28;7643;-73
2022/12/24 12:27:31;;;;;;;;;;;;;;;16.49;56.13;100302.16;4890147;29;6997;-73
2022/12/24 12:30:13;;;;;;;;;;;;;;;16.65;56.05;100294.75;4914110;28;8677;-72
2022/12/24 12:32:49;;;;;;;;;;;;;;;16.70;55.56;100302.63;4891005;29;11419;-73
2022/12/24 12:35:40;;;;;;;;;;;;;;;16.70;55.49;100305.19;4916737;28;7446;-73
2022/12/24 12:38:23;;;;;;;;;;;;;;;16.63;55.13;100311.97;4919034;28;6816;-73
2022/12/24 12:41:24;;;;;;;;;;;;;;;16.57;55.60;100309.22;4907115;29;7010;-73
2022/12/24 12:44:17;;;;;;;;;;;;;;;16.57;55.32;100309.22;4921479;28;6816;-73
2022/12/24 12:47:03;;;;;;;;;;;;;;;16.54;55.05;100309.19;4908492;29;7027;-73
2022/12/24 12:50:16;;;;;;;;;;;;;;;16.51;55.03;100313.44;4925435;28;6821;-72
2022/12/24 12:52:53;;;;;;;;;;;;;;;16.50;54.65;100303.06;4946223;28;7495;-72
2022/12/24 12:56:00;;;;;;;;;;;;;;;16.54;55.27;100301.41;4951886;28;7037;-73
2022/12/24 12:58:46;;;;;;;;;;;;;;;16.55;55.17;100301.44;4931107;28;6892;-74
2022/12/24 13:01:23;;;;;;;;;;;;;;;16.55;54.95;100308.34;4961487;28;6823;-72
2022/12/24 13:04:26;;;;;;;;;;;;;;;16.58;54.59;100313.56;4955038;28;8158;-73
2022/12/24 13:07:07;;;;;;;;;;;;;;;16.59;54.66;100310.13;4929695;28;6837;-73
2022/12/24 13:10:21;;;;;;;;;;;;;;;16.59;54.57;100321.38;4926800;28;7039;-73
2022/12/24 13:13:09;;;;;;;;;;;;;;;16.58;54.29;100318.75;4933968;28;7011;-73
2022/12/24 13:16:14;;;;;;;;;;;;;;;16.56;54.45;100321.28;4923128;28;6812;-73
2022/12/24 13:18:59;;;;;;;;;;;;;;;16.56;54.36;100316.09;4913605;28;6824;-72
2022/12/24 13:21:29;;;;;;;;;;;;;;;16.55;54.43;100321.28;4923530;28;7237;-74
2022/12/24 13:24:26;;;;;;;;;;;;;;;16.47;53.95;100323.69;4959552;28;6781;-72
2022/12/24 13:27:27;;;;;;;;;;;;;;;16.42;54.13;100321.00;4953276;28;6820;-73
2022/12/24 13:29:58;;;;;;;;;;;;;;;16.33;54.40;100315.63;4959853;28;6958;-73